sensor_id;sensor_type;location;lat;lon;timestamp;P1;durP1;ratioP1;P2;durP2;ratioP2
25301;SDS011;13243;50.888;4.724;2023-06-22T00:00:49;8.07;;;4.40;;
25301;SDS011;13243;50.888;4.724;2023-06-22T00:05:51;7.50;;;4.85;;
25301;SDS011;13243;50.888;4.724;2023-06-22T00:10:54;7.13;;;4.45;;
25301;SDS011;13243;50.888;4.724;2023-06-22T00:15:56;9.35;;;4.53;;
25301;SDS011;13243;50.888;4.724;2023-06-22T00:20:59;8.73;;;4.50;;
25301;SDS011;13243;50.888;4.724;2023-06-22T00:26:01;5.97;;;4.40;;
25301;SDS011;13243;50.888;4.724;2023-06-22T00:31:03;8.25;;;4.20;;
25301;SDS011;13243;50.888;4.724;2023-06-22T00:36:05;7.00;;;4.20;;
25301;SDS011;13243;50.888;4.724;2023-06-22T00:41:11;6.22;;;3.85;;
25301;SDS011;13243;50.888;4.724;2023-06-22T00:46:13;5.35;;;3.70;;
25301;SDS011;13243;50.888;4.724;2023-06-22T00:51:15;7.30;;;4.20;;
25301;SDS011;13243;50.888;4.724;2023-06-22T00:56:17;6.90;;;4.13;;
25301;SDS011;13243;50.888;4.724;2023-06-22T01:01:20;5.43;;;3.67;;
25301;SDS011;13243;50.888;4.724;2023-06-22T01:06:29;8.95;;;4.15;;
25301;SDS011;13243;50.888;4.724;2023-06-22T01:11:41;7.50;;;4.40;;
25301;SDS011;13243;50.888;4.724;2023-06-22T01:16:47;7.30;;;4.68;;
25301;SDS011;13243;50.888;4.724;2023-06-22T01:21:52;10.80;;;5.15;;
25301;SDS011;13243;50.888;4.724;2023-06-22T01:32:30;6.90;;;4.30;;
25301;SDS011;13243;50.888;4.724;2023-06-22T01:37:34;7.63;;;3.92;;
25301;SDS011;13243;50.888;4.724;2023-06-22T01:42:38;9.80;;;5.03;;
25301;SDS011;13243;50.888;4.724;2023-06-22T01:47:40;6.38;;;4.60;;
25301;SDS011;13243;50.888;4.724;2023-06-22T01:52:43;6.90;;;4.13;;
25301;SDS011;13243;50.888;4.724;2023-06-22T01:57:45;6.03;;;4.25;;
25301;SDS011;13243;50.888;4.724;2023-06-22T02:03:00;7.60;;;4.28;;
25301;SDS011;13243;50.888;4.724;2023-06-22T02:13:09;10.63;;;5.10;;
25301;SDS011;13243;50.888;4.724;2023-06-22T02:18:11;8.48;;;4.43;;
25301;SDS011;13243;50.888;4.724;2023-06-22T02:23:14;7.65;;;4.93;;
25301;SDS011;13243;50.888;4.724;2023-06-22T02:28:16;7.63;;;4.90;;
25301;SDS011;13243;50.888;4.724;2023-06-22T02:33:17;7.78;;;3.97;;
25301;SDS011;13243;50.888;4.724;2023-06-22T02:38:19;7.60;;;4.78;;
25301;SDS011;13243;50.888;4.724;2023-06-22T02:43:21;7.38;;;4.55;;
25301;SDS011;13243;50.888;4.724;2023-06-22T02:48:23;15.13;;;5.57;;
25301;SDS011;13243;50.888;4.724;2023-06-22T02:53:27;7.03;;;4.95;;
25301;SDS011;13243;50.888;4.724;2023-06-22T02:58:29;8.32;;;4.72;;
25301;SDS011;13243;50.888;4.724;2023-06-22T03:03:31;6.85;;;4.80;;
25301;SDS011;13243;50.888;4.724;2023-06-22T03:08:34;13.32;;;4.82;;
25301;SDS011;13243;50.888;4.724;2023-06-22T03:13:36;6.90;;;4.53;;
25301;SDS011;13243;50.888;4.724;2023-06-22T03:18:38;7.78;;;5.35;;
25301;SDS011;13243;50.888;4.724;2023-06-22T03:23:40;8.75;;;4.60;;
25301;SDS011;13243;50.888;4.724;2023-06-22T03:28:42;9.50;;;4.55;;
25301;SDS011;13243;50.888;4.724;2023-06-22T03:33:44;11.52;;;5.55;;
25301;SDS011;13243;50.888;4.724;2023-06-22T03:38:46;8.00;;;5.93;;
25301;SDS011;13243;50.888;4.724;2023-06-22T03:43:49;9.93;;;5.38;;
25301;SDS011;13243;50.888;4.724;2023-06-22T03:48:51;9.48;;;5.60;;
25301;SDS011;13243;50.888;4.724;2023-06-22T03:53:53;9.23;;;4.95;;
25301;SDS011;13243;50.888;4.724;2023-06-22T03:58:54;7.82;;;5.10;;
25301;SDS011;13243;50.888;4.724;2023-06-22T04:03:56;9.18;;;5.78;;
25301;SDS011;13243;50.888;4.724;2023-06-22T04:08:58;7.70;;;5.35;;
25301;SDS011;13243;50.888;4.724;2023-06-22T04:14:02;8.35;;;5.70;;
25301;SDS011;13243;50.888;4.724;2023-06-22T04:19:04;11.18;;;5.68;;
25301;SDS011;13243;50.888;4.724;2023-06-22T04:24:06;9.98;;;6.13;;
25301;SDS011;13243;50.888;4.724;2023-06-22T04:29:08;8.80;;;5.70;;
25301;SDS011;13243;50.888;4.724;2023-06-22T04:34:12;8.20;;;5.35;;
25301;SDS011;13243;50.888;4.724;2023-06-22T04:39:17;9.30;;;5.43;;
25301;SDS011;13243;50.888;4.724;2023-06-22T04:44:20;10.00;;;5.70;;
25301;SDS011;13243;50.888;4.724;2023-06-22T04:49:28;10.30;;;5.90;;
25301;SDS011;13243;50.888;4.724;2023-06-22T04:54:34;10.98;;;7.13;;
25301;SDS011;13243;50.888;4.724;2023-06-22T04:59:38;10.20;;;6.28;;
25301;SDS011;13243;50.888;4.724;2023-06-22T05:04:43;10.52;;;6.38;;
25301;SDS011;13243;50.888;4.724;2023-06-22T05:09:45;14.23;;;6.65;;
25301;SDS011;13243;50.888;4.724;2023-06-22T05:14:47;11.65;;;6.10;;
25301;SDS011;13243;50.888;4.724;2023-06-22T05:19:49;13.38;;;6.18;;
25301;SDS011;13243;50.888;4.724;2023-06-22T05:24:51;12.30;;;6.93;;
25301;SDS011;13243;50.888;4.724;2023-06-22T05:29:54;14.70;;;7.10;;
25301;SDS011;13243;50.888;4.724;2023-06-22T05:34:56;11.07;;;6.68;;
25301;SDS011;13243;50.888;4.724;2023-06-22T05:39:58;11.93;;;6.57;;
25301;SDS011;13243;50.888;4.724;2023-06-22T05:45:00;11.70;;;6.90;;
25301;SDS011;13243;50.888;4.724;2023-06-22T05:50:02;12.85;;;6.70;;
25301;SDS011;13243;50.888;4.724;2023-06-22T05:55:08;10.93;;;6.93;;
25301;SDS011;13243;50.888;4.724;2023-06-22T06:00:10;11.70;;;6.85;;
25301;SDS011;13243;50.888;4.724;2023-06-22T06:05:13;11.38;;;7.32;;
25301;SDS011;13243;50.888;4.724;2023-06-22T06:10:15;13.63;;;7.35;;
25301;SDS011;13243;50.888;4.724;2023-06-22T06:15:17;10.85;;;7.15;;
25301;SDS011;13243;50.888;4.724;2023-06-22T06:20:20;13.23;;;8.07;;
25301;SDS011;13243;50.888;4.724;2023-06-22T06:25:23;18.00;;;8.52;;
25301;SDS011;13243;50.888;4.724;2023-06-22T06:30:25;14.50;;;9.15;;
25301;SDS011;13243;50.888;4.724;2023-06-22T06:35:28;15.20;;;9.07;;
25301;SDS011;13243;50.888;4.724;2023-06-22T06:40:30;14.80;;;8.65;;
25301;SDS011;13243;50.888;4.724;2023-06-22T06:45:33;15.88;;;9.43;;
25301;SDS011;13243;50.888;4.724;2023-06-22T06:50:36;13.43;;;8.57;;
25301;SDS011;13243;50.888;4.724;2023-06-22T06:55:38;17.13;;;8.60;;
25301;SDS011;13243;50.888;4.724;2023-06-22T07:00:39;17.02;;;8.05;;
25301;SDS011;13243;50.888;4.724;2023-06-22T07:05:41;11.63;;;7.40;;
25301;SDS011;13243;50.888;4.724;2023-06-22T07:10:43;16.63;;;7.70;;
25301;SDS011;13243;50.888;4.724;2023-06-22T07:15:45;9.57;;;5.85;;
25301;SDS011;13243;50.888;4.724;2023-06-22T07:20:47;11.25;;;6.80;;
25301;SDS011;13243;50.888;4.724;2023-06-22T07:25:49;14.52;;;7.32;;
25301;SDS011;13243;50.888;4.724;2023-06-22T07:30:51;11.90;;;6.25;;
25301;SDS011;13243;50.888;4.724;2023-06-22T07:35:53;12.20;;;7.07;;
25301;SDS011;13243;50.888;4.724;2023-06-22T07:40:55;12.23;;;6.85;;
25301;SDS011;13243;50.888;4.724;2023-06-22T07:45:57;13.68;;;6.25;;
25301;SDS011;13243;50.888;4.724;2023-06-22T07:50:59;8.57;;;6.28;;
25301;SDS011;13243;50.888;4.724;2023-06-22T07:56:01;9.10;;;6.43;;
25301;SDS011;13243;50.888;4.724;2023-06-22T08:01:08;9.50;;;5.75;;
25301;SDS011;13243;50.888;4.724;2023-06-22T08:06:11;11.05;;;5.70;;
25301;SDS011;13243;50.888;4.724;2023-06-22T08:11:13;8.75;;;5.75;;
25301;SDS011;13243;50.888;4.724;2023-06-22T08:16:15;10.18;;;5.55;;
25301;SDS011;13243;50.888;4.724;2023-06-22T08:21:16;10.65;;;5.60;;
25301;SDS011;13243;50.888;4.724;2023-06-22T08:26:18;9.00;;;5.13;;
25301;SDS011;13243;50.888;4.724;2023-06-22T08:31:20;12.00;;;5.70;;
25301;SDS011;13243;50.888;4.724;2023-06-22T08:36:22;8.93;;;5.30;;
25301;SDS011;13243;50.888;4.724;2023-06-22T08:41:24;8.65;;;5.13;;
25301;SDS011;13243;50.888;4.724;2023-06-22T08:46:26;6.97;;;4.57;;
25301;SDS011;13243;50.888;4.724;2023-06-22T08:51:31;8.70;;;4.30;;
25301;SDS011;13243;50.888;4.724;2023-06-22T08:56:33;6.22;;;3.85;;
25301;SDS011;13243;50.888;4.724;2023-06-22T09:01:35;6.07;;;4.03;;
25301;SDS011;13243;50.888;4.724;2023-06-22T09:06:37;9.32;;;4.18;;
25301;SDS011;13243;50.888;4.724;2023-06-22T09:11:45;9.18;;;4.32;;
25301;SDS011;13243;50.888;4.724;2023-06-22T09:16:48;11.13;;;4.20;;
25301;SDS011;13243;50.888;4.724;2023-06-22T09:21:50;8.27;;;3.90;;
25301;SDS011;13243;50.888;4.724;2023-06-22T09:26:52;11.57;;;4.38;;
25301;SDS011;13243;50.888;4.724;2023-06-22T09:31:54;7.18;;;4.20;;
25301;SDS011;13243;50.888;4.724;2023-06-22T09:36:57;6.40;;;4.28;;
25301;SDS011;13243;50.888;4.724;2023-06-22T09:42:02;6.47;;;5.00;;
25301;SDS011;13243;50.888;4.724;2023-06-22T09:47:04;7.45;;;5.38;;
25301;SDS011;13243;50.888;4.724;2023-06-22T09:52:06;12.15;;;6.57;;
25301;SDS011;13243;50.888;4.724;2023-06-22T09:57:09;13.95;;;8.15;;
25301;SDS011;13243;50.888;4.724;2023-06-22T10:02:11;14.82;;;8.02;;
25301;SDS011;13243;50.888;4.724;2023-06-22T10:07:13;15.90;;;9.82;;
25301;SDS011;13243;50.888;4.724;2023-06-22T10:12:15;17.20;;;10.63;;
25301;SDS011;13243;50.888;4.724;2023-06-22T10:17:16;19.55;;;12.70;;
25301;SDS011;13243;50.888;4.724;2023-06-22T10:22:18;19.80;;;12.00;;
25301;SDS011;13243;50.888;4.724;2023-06-22T10:27:20;19.42;;;11.75;;
25301;SDS011;13243;50.888;4.724;2023-06-22T10:32:22;18.40;;;12.20;;
25301;SDS011;13243;50.888;4.724;2023-06-22T10:37:24;16.08;;;11.77;;
25301;SDS011;13243;50.888;4.724;2023-06-22T10:42:26;17.52;;;11.63;;
25301;SDS011;13243;50.888;4.724;2023-06-22T10:47:28;20.00;;;12.35;;
25301;SDS011;13243;50.888;4.724;2023-06-22T10:52:29;17.80;;;11.75;;
25301;SDS011;13243;50.888;4.724;2023-06-22T10:57:31;20.45;;;12.20;;
25301;SDS011;13243;50.888;4.724;2023-06-22T11:02:33;19.58;;;12.57;;
25301;SDS011;13243;50.888;4.724;2023-06-22T11:07:36;19.15;;;12.48;;
25301;SDS011;13243;50.888;4.724;2023-06-22T11:12:39;18.05;;;11.55;;
25301;SDS011;13243;50.888;4.724;2023-06-22T11:17:41;19.52;;;12.43;;
25301;SDS011;13243;50.888;4.724;2023-06-22T11:22:43;20.73;;;13.77;;
25301;SDS011;13243;50.888;4.724;2023-06-22T11:27:45;22.20;;;14.65;;
25301;SDS011;13243;50.888;4.724;2023-06-22T11:32:47;23.30;;;14.73;;
25301;SDS011;13243;50.888;4.724;2023-06-22T11:37:49;25.33;;;14.98;;
25301;SDS011;13243;50.888;4.724;2023-06-22T11:42:54;24.65;;;15.55;;
25301;SDS011;13243;50.888;4.724;2023-06-22T11:47:56;23.25;;;14.88;;
25301;SDS011;13243;50.888;4.724;2023-06-22T11:52:58;22.17;;;15.93;;
25301;SDS011;13243;50.888;4.724;2023-06-22T11:58:00;34.05;;;17.50;;
25301;SDS011;13243;50.888;4.724;2023-06-22T12:03:04;28.17;;;16.38;;
25301;SDS011;13243;50.888;4.724;2023-06-22T12:08:06;27.13;;;17.40;;
25301;SDS011;13243;50.888;4.724;2023-06-22T12:13:08;28.63;;;18.30;;
25301;SDS011;13243;50.888;4.724;2023-06-22T12:18:10;25.92;;;17.50;;
25301;SDS011;13243;50.888;4.724;2023-06-22T12:23:12;29.05;;;19.05;;
25301;SDS011;13243;50.888;4.724;2023-06-22T12:28:16;29.02;;;18.92;;
25301;SDS011;13243;50.888;4.724;2023-06-22T12:33:18;27.42;;;18.45;;
25301;SDS011;13243;50.888;4.724;2023-06-22T12:38:20;28.13;;;19.02;;
25301;SDS011;13243;50.888;4.724;2023-06-22T12:43:22;30.58;;;19.80;;
25301;SDS011;13243;50.888;4.724;2023-06-22T12:48:25;34.30;;;20.27;;
25301;SDS011;13243;50.888;4.724;2023-06-22T12:53:28;31.92;;;19.58;;
25301;SDS011;13243;50.888;4.724;2023-06-22T12:58:30;32.05;;;20.40;;
25301;SDS011;13243;50.888;4.724;2023-06-22T13:03:32;28.63;;;18.98;;
25301;SDS011;13243;50.888;4.724;2023-06-22T13:08:34;31.50;;;19.55;;
25301;SDS011;13243;50.888;4.724;2023-06-22T13:13:56;27.95;;;19.30;;
25301;SDS011;13243;50.888;4.724;2023-06-22T13:18:57;32.58;;;21.17;;
25301;SDS011;13243;50.888;4.724;2023-06-22T13:23:59;29.65;;;20.02;;
25301;SDS011;13243;50.888;4.724;2023-06-22T13:29:02;29.05;;;19.95;;
25301;SDS011;13243;50.888;4.724;2023-06-22T13:34:04;32.78;;;20.60;;
25301;SDS011;13243;50.888;4.724;2023-06-22T13:39:06;31.85;;;19.52;;
25301;SDS011;13243;50.888;4.724;2023-06-22T13:44:08;34.20;;;21.40;;
25301;SDS011;13243;50.888;4.724;2023-06-22T13:49:09;30.83;;;20.70;;
25301;SDS011;13243;50.888;4.724;2023-06-22T13:54:11;30.33;;;21.05;;
25301;SDS011;13243;50.888;4.724;2023-06-22T13:59:29;35.05;;;21.77;;
25301;SDS011;13243;50.888;4.724;2023-06-22T14:04:31;32.50;;;20.50;;
25301;SDS011;13243;50.888;4.724;2023-06-22T14:09:33;27.50;;;18.38;;
25301;SDS011;13243;50.888;4.724;2023-06-22T14:14:35;33.90;;;20.30;;
25301;SDS011;13243;50.888;4.724;2023-06-22T14:19:37;29.33;;;19.05;;
25301;SDS011;13243;50.888;4.724;2023-06-22T14:24:39;28.08;;;18.92;;
25301;SDS011;13243;50.888;4.724;2023-06-22T14:29:41;28.13;;;17.65;;
25301;SDS011;13243;50.888;4.724;2023-06-22T14:34:44;26.90;;;17.95;;
25301;SDS011;13243;50.888;4.724;2023-06-22T14:39:45;24.42;;;17.48;;
25301;SDS011;13243;50.888;4.724;2023-06-22T14:44:47;29.40;;;18.92;;
25301;SDS011;13243;50.888;4.724;2023-06-22T14:49:50;31.33;;;18.65;;
25301;SDS011;13243;50.888;4.724;2023-06-22T14:54:51;28.52;;;18.02;;
25301;SDS011;13243;50.888;4.724;2023-06-22T14:59:53;25.50;;;17.20;;
25301;SDS011;13243;50.888;4.724;2023-06-22T15:04:56;24.83;;;17.80;;
25301;SDS011;13243;50.888;4.724;2023-06-22T15:09:58;25.77;;;16.55;;
25301;SDS011;13243;50.888;4.724;2023-06-22T15:15:00;24.85;;;16.42;;
25301;SDS011;13243;50.888;4.724;2023-06-22T15:20:02;26.52;;;17.23;;
25301;SDS011;13243;50.888;4.724;2023-06-22T15:25:06;23.60;;;16.75;;
25301;SDS011;13243;50.888;4.724;2023-06-22T15:30:08;26.45;;;18.75;;
25301;SDS011;13243;50.888;4.724;2023-06-22T15:35:11;27.65;;;18.50;;
25301;SDS011;13243;50.888;4.724;2023-06-22T15:40:13;26.58;;;18.83;;
25301;SDS011;13243;50.888;4.724;2023-06-22T15:45:15;30.67;;;20.70;;
25301;SDS011;13243;50.888;4.724;2023-06-22T15:50:17;26.98;;;19.40;;
25301;SDS011;13243;50.888;4.724;2023-06-22T15:55:19;27.83;;;19.73;;
25301;SDS011;13243;50.888;4.724;2023-06-22T16:00:21;30.20;;;19.98;;
25301;SDS011;13243;50.888;4.724;2023-06-22T16:05:23;30.92;;;22.15;;
25301;SDS011;13243;50.888;4.724;2023-06-22T16:10:24;35.08;;;20.88;;
25301;SDS011;13243;50.888;4.724;2023-06-22T16:15:26;33.60;;;23.05;;
25301;SDS011;13243;50.888;4.724;2023-06-22T16:20:28;31.92;;;21.63;;
25301;SDS011;13243;50.888;4.724;2023-06-22T16:25:30;33.97;;;24.10;;
25301;SDS011;13243;50.888;4.724;2023-06-22T16:30:32;34.10;;;23.63;;
25301;SDS011;13243;50.888;4.724;2023-06-22T16:35:34;35.47;;;23.90;;
25301;SDS011;13243;50.888;4.724;2023-06-22T16:40:38;34.97;;;23.83;;
25301;SDS011;13243;50.888;4.724;2023-06-22T16:45:39;37.10;;;24.25;;
25301;SDS011;13243;50.888;4.724;2023-06-22T16:50:41;32.38;;;21.52;;
25301;SDS011;13243;50.888;4.724;2023-06-22T16:55:43;33.55;;;21.98;;
25301;SDS011;13243;50.888;4.724;2023-06-22T17:00:50;31.33;;;20.85;;
25301;SDS011;13243;50.888;4.724;2023-06-22T17:05:56;32.47;;;20.45;;
25301;SDS011;13243;50.888;4.724;2023-06-22T17:11:02;28.03;;;20.23;;
25301;SDS011;13243;50.888;4.724;2023-06-22T17:16:04;29.33;;;19.73;;
25301;SDS011;13243;50.888;4.724;2023-06-22T17:21:18;29.08;;;20.67;;
25301;SDS011;13243;50.888;4.724;2023-06-22T17:26:22;32.25;;;21.55;;
25301;SDS011;13243;50.888;4.724;2023-06-22T17:31:24;36.17;;;23.35;;
25301;SDS011;13243;50.888;4.724;2023-06-22T17:36:26;43.08;;;26.67;;
25301;SDS011;13243;50.888;4.724;2023-06-22T17:41:31;37.13;;;24.38;;
25301;SDS011;13243;50.888;4.724;2023-06-22T17:46:37;43.03;;;27.42;;
25301;SDS011;13243;50.888;4.724;2023-06-22T17:51:40;45.08;;;29.08;;
25301;SDS011;13243;50.888;4.724;2023-06-22T17:56:47;50.05;;;30.38;;
25301;SDS011;13243;50.888;4.724;2023-06-22T18:01:51;48.93;;;31.07;;
25301;SDS011;13243;50.888;4.724;2023-06-22T18:06:53;43.22;;;28.55;;
25301;SDS011;13243;50.888;4.724;2023-06-22T18:11:57;41.70;;;26.98;;
25301;SDS011;13243;50.888;4.724;2023-06-22T18:17:03;40.58;;;26.10;;
25301;SDS011;13243;50.888;4.724;2023-06-22T18:22:06;46.17;;;27.23;;
25301;SDS011;13243;50.888;4.724;2023-06-22T18:27:08;47.17;;;25.40;;
25301;SDS011;13243;50.888;4.724;2023-06-22T18:32:15;40.40;;;24.77;;
25301;SDS011;13243;50.888;4.724;2023-06-22T18:37:17;41.17;;;26.50;;
25301;SDS011;13243;50.888;4.724;2023-06-22T18:42:20;32.80;;;23.05;;
25301;SDS011;13243;50.888;4.724;2023-06-22T18:47:29;31.92;;;21.77;;
25301;SDS011;13243;50.888;4.724;2023-06-22T18:52:32;33.75;;;22.63;;
25301;SDS011;13243;50.888;4.724;2023-06-22T18:57:36;31.38;;;21.42;;
25301;SDS011;13243;50.888;4.724;2023-06-22T19:08:01;32.75;;;21.98;;
25301;SDS011;13243;50.888;4.724;2023-06-22T19:18:37;35.20;;;22.10;;
25301;SDS011;13243;50.888;4.724;2023-06-22T19:23:42;34.35;;;21.58;;
25301;SDS011;13243;50.888;4.724;2023-06-22T19:28:53;32.45;;;22.30;;
25301;SDS011;13243;50.888;4.724;2023-06-22T19:39:07;34.42;;;21.60;;
25301;SDS011;13243;50.888;4.724;2023-06-22T19:44:09;35.75;;;23.23;;
25301;SDS011;13243;50.888;4.724;2023-06-22T19:49:11;34.08;;;22.58;;
25301;SDS011;13243;50.888;4.724;2023-06-22T19:54:17;32.40;;;20.70;;
25301;SDS011;13243;50.888;4.724;2023-06-22T19:59:19;33.97;;;20.17;;
25301;SDS011;13243;50.888;4.724;2023-06-22T20:04:24;30.73;;;18.88;;
25301;SDS011;13243;50.888;4.724;2023-06-22T20:09:26;31.15;;;19.85;;
25301;SDS011;13243;50.888;4.724;2023-06-22T20:14:32;33.90;;;19.30;;
25301;SDS011;13243;50.888;4.724;2023-06-22T20:19:35;29.98;;;17.88;;
25301;SDS011;13243;50.888;4.724;2023-06-22T20:24:40;28.10;;;18.65;;
25301;SDS011;13243;50.888;4.724;2023-06-22T20:29:42;29.10;;;18.52;;
25301;SDS011;13243;50.888;4.724;2023-06-22T20:34:45;33.05;;;20.48;;
25301;SDS011;13243;50.888;4.724;2023-06-22T20:39:49;33.63;;;21.48;;
25301;SDS011;13243;50.888;4.724;2023-06-22T20:44:52;32.85;;;20.75;;
25301;SDS011;13243;50.888;4.724;2023-06-22T20:49:54;39.97;;;24.33;;
25301;SDS011;13243;50.888;4.724;2023-06-22T20:55:00;39.22;;;24.58;;
25301;SDS011;13243;50.888;4.724;2023-06-22T21:00:02;46.50;;;29.67;;
25301;SDS011;13243;50.888;4.724;2023-06-22T21:05:07;55.42;;;33.33;;
25301;SDS011;13243;50.888;4.724;2023-06-22T21:10:09;61.95;;;34.38;;
25301;SDS011;13243;50.888;4.724;2023-06-22T21:15:11;74.78;;;39.45;;
25301;SDS011;13243;50.888;4.724;2023-06-22T21:20:13;69.85;;;39.58;;
25301;SDS011;13243;50.888;4.724;2023-06-22T21:25:15;75.35;;;41.10;;
25301;SDS011;13243;50.888;4.724;2023-06-22T21:30:17;63.83;;;39.03;;
25301;SDS011;13243;50.888;4.724;2023-06-22T21:35:19;67.57;;;39.42;;
25301;SDS011;13243;50.888;4.724;2023-06-22T21:40:21;65.40;;;38.00;;
25301;SDS011;13243;50.888;4.724;2023-06-22T21:45:26;72.80;;;38.75;;
25301;SDS011;13243;50.888;4.724;2023-06-22T21:50:28;69.38;;;38.75;;
25301;SDS011;13243;50.888;4.724;2023-06-22T21:55:30;70.28;;;36.50;;
25301;SDS011;13243;50.888;4.724;2023-06-22T22:00:32;65.13;;;36.85;;
25301;SDS011;13243;50.888;4.724;2023-06-22T22:05:34;61.13;;;35.17;;
25301;SDS011;13243;50.888;4.724;2023-06-22T22:10:36;68.88;;;36.45;;
25301;SDS011;13243;50.888;4.724;2023-06-22T22:15:41;64.13;;;34.83;;
25301;SDS011;13243;50.888;4.724;2023-06-22T22:20:43;58.63;;;33.28;;
25301;SDS011;13243;50.888;4.724;2023-06-22T22:25:45;59.85;;;32.80;;
25301;SDS011;13243;50.888;4.724;2023-06-22T22:30:48;57.70;;;32.35;;
25301;SDS011;13243;50.888;4.724;2023-06-22T22:35:51;57.17;;;31.98;;
25301;SDS011;13243;50.888;4.724;2023-06-22T22:40:53;56.65;;;30.00;;
25301;SDS011;13243;50.888;4.724;2023-06-22T22:45:54;53.70;;;31.13;;
25301;SDS011;13243;50.888;4.724;2023-06-22T22:50:57;58.25;;;31.52;;
25301;SDS011;13243;50.888;4.724;2023-06-22T22:56:00;54.60;;;30.38;;
25301;SDS011;13243;50.888;4.724;2023-06-22T23:01:03;59.78;;;30.52;;
25301;SDS011;13243;50.888;4.724;2023-06-22T23:06:05;63.78;;;31.40;;
25301;SDS011;13243;50.888;4.724;2023-06-22T23:11:08;61.75;;;30.92;;
25301;SDS011;13243;50.888;4.724;2023-06-22T23:16:10;62.03;;;31.17;;
25301;SDS011;13243;50.888;4.724;2023-06-22T23:21:14;49.70;;;27.90;;
25301;SDS011;13243;50.888;4.724;2023-06-22T23:26:16;52.88;;;27.63;;
25301;SDS011;13243;50.888;4.724;2023-06-22T23:31:18;51.38;;;29.45;;
25301;SDS011;13243;50.888;4.724;2023-06-22T23:36:20;51.17;;;26.85;;
25301;SDS011;13243;50.888;4.724;2023-06-22T23:41:23;52.25;;;27.60;;
25301;SDS011;13243;50.888;4.724;2023-06-22T23:46:29;48.10;;;25.83;;
25301;SDS011;13243;50.888;4.724;2023-06-22T23:51:32;52.83;;;25.90;;
25301;SDS011;13243;50.888;4.724;2023-06-22T23:56:38;43.65;;;24.95;;
